Sunday, November 18, 2018, 2:32 PM GMT
Back to Local

CYBC, Baie Comeau, Que.

Location: , , Canada Lat: 49.133
Local Time: 2:32 PM GMT (14:32 GMT) Lon: -68.2
Time Zone: GMT Elev: 68 ft

Show me the last for .
Show Decoded

2018-11-18 14:00 METAR CYBC 181400Z AUTO 27008KT 9SM CLR M08/M15 A3024 RMK SLP245 =
2018-11-18 13:00 METAR CYBC 181300Z AUTO 28007KT 9SM CLR M09/M15 A3022 RMK SLP236 =
2018-11-18 12:00 METAR CYBC 181200Z AUTO 28010G15KT 9SM CLR M10/M15 A3019 RMK SLP226 =
2018-11-18 11:00 METAR CYBC 181100Z AUTO 26009KT 9SM CLR M09/M15 A3016 RMK SLP216 =
2018-11-18 10:00 METAR CYBC 181000Z AUTO 30007KT 9SM CLR M09/M13 A3012 RMK SLP201 =
2018-11-18 09:00 METAR CYBC 180900Z AUTO 27006KT 9SM CLR M10/M13 A3010 RMK SLP195 =
2018-11-18 08:00 METAR CYBC 180800Z AUTO 29005KT 9SM CLR M08/M12 A3008 RMK SLP189 =
2018-11-18 07:00 METAR CYBC 180700Z AUTO 29008KT 9SM CLR M07/M12 A3007 RMK SLP184 =
2018-11-18 06:00 METAR CYBC 180600Z AUTO 30008KT 9SM CLR M07/M12 A3005 RMK SLP179 =
2018-11-18 05:00 METAR CYBC 180500Z AUTO 30005KT 9SM CLR M07/M12 A3002 RMK SLP170 =
2018-11-18 04:00 METAR CYBC 180400Z AUTO 28007KT 9SM CLR M06/M12 A3000 RMK SLP161 =
2018-11-18 03:00 METAR CYBC 180300Z AUTO 27004KT 9SM CLR M06/M11 A2998 RMK SLP155 =
2018-11-18 02:00 METAR CYBC 180200Z AUTO 29007KT 9SM FEW039 M05/M10 A2994 RMK SLP143 =
2018-11-18 01:00 METAR CYBC 180100Z AUTO 30013G19KT 9SM CLR M04/M10 A2990 RMK SLP128 =
2018-11-18 00:33 METAR CYBC 180033Z AUTO 29008G15KT 9SM FEW022 SCT030 M03/M08 A2989 RMK SLP125 =
2018-11-18 00:15 METAR CYBC 180015Z AUTO 29008KT 9SM -SN FEW008 BKN030 M03/M08 A2988 RMK SLP120
2018-11-18 00:00 METAR CYBC 180000Z AUTO 28007G15KT 9SM SCT030 BKN130 M03/M07 A2986 RMK SLP116 =
2018-11-17 23:00 METAR CYBC 172300Z AUTO 27011G16KT 9SM OVC130 M02/M07 A2983 RMK SLP104 =
2018-11-17 22:00 METAR CYBC 172200Z AUTO 27006KT 9SM OVC080 M02/M06 A2980 RMK SLP095 =
2018-11-17 21:00 METAR CYBC 172100Z AUTO 26009KT 9SM SCT100 BKN120 OVC140 M02/M06 A2978 RMK
                 SLP089 =
2018-11-17 20:00 METAR CYBC 172000Z AUTO 26009KT 9SM BKN140 M02/M06 A2975 RMK SLP078 =
2018-11-17 19:05 METAR CYBC 171905Z AUTO 24010KT 9SM BKN028 M02/M05 A2974 RMK SLP073 =
2018-11-17 19:00 METAR CYBC 171900Z AUTO 24011KT 9SM -SN BKN028 M02/M05 A2973 RMK SLP072 =
2018-11-17 18:40 METAR CYBC 171840Z AUTO 24013KT 9SM -SN BKN026 OVC030 M01/M05 A2973 RMK SLP070 =
2018-11-17 18:39 METAR CYBC 171839Z AUTO 24014KT 9SM -SN BKN024 OVC030 M01/M05 A2973 RMK SLP069 =
2018-11-17 18:37 METAR CYBC 171837Z AUTO 24013G18KT 9SM BKN024 OVC030 M02/M05 A2973 RMK SLP069 =
2018-11-17 18:33 METAR CYBC 171833Z AUTO 24013G18KT 9SM FEW018 OVC026 M02/M05 A2973 RMK SLP069 =
2018-11-17 18:32 METAR CYBC 171832Z AUTO 24012G18KT 9SM BKN022 OVC028 M02/M05 A2973 RMK SLP069 =
2018-11-17 18:17 METAR CYBC 171817Z AUTO 24013KT 9SM SCT019 OVC026 M02/M05 A2972 RMK SLP067 =
2018-11-17 18:05 METAR CYBC 171805Z AUTO 24013KT 9SM BKN019 OVC031 M02/M05 A2972 RMK SLP068 =
2018-11-17 18:00 METAR CYBC 171800Z AUTO 24015KT 9SM SCT019 BKN031 M02/M05 A2972 RMK SLP067 =
2018-11-17 17:54 METAR CYBC 171754Z AUTO 24012G17KT 9SM FEW019 BKN031 M02/M05 A2972 RMK SLP067 =
2018-11-17 17:39 METAR CYBC 171739Z AUTO 25013KT 9SM -SN FEW016 M02/M06 A2971 RMK SLP065 =
2018-11-17 17:00 METAR CYBC 171700Z AUTO 25011KT 9SM SCT016 BKN028 OVC035 M03/M05 A2972 RMK
                 SLP066 =
2018-11-17 16:41 METAR CYBC 171641Z AUTO 25014KT 9SM BKN035 OVC065 M03/M06 A2972 RMK SLP067 =
2018-11-17 16:00 METAR CYBC 171600Z AUTO 25014KT 9SM -SN BKN035 OVC042 M04/M06 A2972 RMK SLP066 =
2018-11-17 15:40 METAR CYBC 171540Z AUTO 25011KT 6SM -SN SCT029 OVC037 M04/M06 A2972 RMK SLP066 =
2018-11-17 15:28 METAR CYBC 171528Z AUTO 25011KT 5SM -SN FEW011 SCT028 BKN035 OVC046 M04/M06
                 A2972 RMK SLP067 =
2018-11-17 15:12 METAR CYBC 171512Z AUTO 25011KT 9SM -SN FEW010 SCT023 BKN033 OVC044 M04/M06
                 A2971 RMK SLP065 =
2018-11-17 15:00 METAR CYBC 171500Z AUTO 25010KT 7SM -SN BKN023 OVC032 M04/M06 A2971 RMK SLP064 =
2018-11-17 14:57 METAR CYBC 171457Z AUTO 25010KT 6SM -SN BKN023 OVC032 M04/M06 A2971 RMK SLP065 =
2018-11-17 14:51 METAR CYBC 171451Z AUTO 26010KT 3SM -SN BKN025 OVC032 M04/M06 A2971 RMK SLP065 =
2018-11-17 14:49 METAR CYBC 171449Z AUTO 25011KT 3SM -SN BKN022 OVC029 M04/M06 A2971 RMK SLP064 =
2018-11-17 14:47 METAR CYBC 171447Z AUTO 25011KT 3SM -SN SCT020 BKN027 OVC032 M04/M06 A2971 RMK
                 SLP064 =
2018-11-17 14:46 METAR CYBC 171446Z AUTO 26012KT 2 1/2SM -SN SCT020 BKN027 OVC032 M04/M06 A2971
                 RMK SLP064 =
2018-11-17 14:40 METAR CYBC 171440Z AUTO 25012KT 2 1/2SM -SN BKN022 BKN027 OVC033 M04/M06 A2971
                 RMK SLP064 =

Support USWX by starting your Amazon purchase here.